Hlavní strana
METAR-TAF:

METAR-TAF

Letiště :

Kajaani, Finsko

zeměpisná šířka: 64-17N, zeměpisná délka: 027-41E, výška: 143 m

Aktuální stav počasí

Zpráva byla vytvořena před 6 minutami, v 23:20 UTC
Jižní vítr 6 kt
Teplota 4°C
Vlhkost vzduchu 100%
Tlak 1017 hPa
Viditelnost: 6000 m
Zataženo ve výšce 100 ft

METAR: EFKI 202320Z AUTO 18006KT 6000 OVC001 04/04 Q1017

Čas: 02:26 (23:26 UTC)

Předpověď počasí

Zpráva byla vytvořena před 13 hodinami a 46 minutami, v 09:40 UTC
Předpověď platná od 20 v 10 UTC do 20 v 12 UTC
Jižní vítr 5 kt
Viditelnost: 1500 m
Zataženo ve výšce 100 ft
kouřmo
Změna
od 20 v 10 UTC do 20 v 12 UTC
Viditelnost 10 km a více
Oblačno až skoro zataženo ve výšce 300 ft

TAF: EFKI 200940Z 2010/2012 19005KT 1500 BR OVC001 BECMG 2010/2012 9999 NSW BKN003

Stav a předpovědi počasí z více než 4 000 letišť (zprávy METAR a TAF).

Červené a žluté tečky na mapě představují dostupné meteorologické stanice.

Když kurzor umístíte na tečku, zobrazí se název stanice.

Pak kliknutím zobrazíte stav a předpověď počasí.

Chcete-li změnit mapu, kliknutím na zelené tlačítko se znaménkem +mapu přiblížíte, kliknutím na zelené tlačítko se znaménkem – mapu oddálíte a kliknutím na zelené šipky přejdete na sousední mapy.


METAR-TAF: